sensor_id;sensor_type;location;lat;lon;timestamp;P1;durP1;ratioP1;P2;durP2;ratioP2
10005;SDS011;5042;42.626;23.382;2023-02-28T00:01:06;17.07;;;10.40;;
10005;SDS011;5042;42.626;23.382;2023-02-28T00:03:32;16.80;;;10.70;;
10005;SDS011;5042;42.626;23.382;2023-02-28T00:06:00;16.07;;;10.27;;
10005;SDS011;5042;42.626;23.382;2023-02-28T00:08:27;14.60;;;9.50;;
10005;SDS011;5042;42.626;23.382;2023-02-28T00:10:54;14.03;;;9.10;;
10005;SDS011;5042;42.626;23.382;2023-02-28T00:13:22;15.37;;;10.27;;
10005;SDS011;5042;42.626;23.382;2023-02-28T00:15:58;16.57;;;9.50;;
10005;SDS011;5042;42.626;23.382;2023-02-28T00:18:25;17.30;;;9.60;;
10005;SDS011;5042;42.626;23.382;2023-02-28T00:20:52;13.80;;;8.80;;
10005;SDS011;5042;42.626;23.382;2023-02-28T00:23:19;14.60;;;9.63;;
10005;SDS011;5042;42.626;23.382;2023-02-28T00:25:45;15.53;;;9.50;;
10005;SDS011;5042;42.626;23.382;2023-02-28T00:28:12;15.23;;;9.27;;
10005;SDS011;5042;42.626;23.382;2023-02-28T00:30:40;17.83;;;10.83;;
10005;SDS011;5042;42.626;23.382;2023-02-28T00:33:07;16.20;;;10.60;;
10005;SDS011;5042;42.626;23.382;2023-02-28T00:35:34;17.20;;;11.53;;
10005;SDS011;5042;42.626;23.382;2023-02-28T00:38:00;16.90;;;11.30;;
10005;SDS011;5042;42.626;23.382;2023-02-28T00:40:27;18.30;;;11.00;;
10005;SDS011;5042;42.626;23.382;2023-02-28T00:42:54;22.23;;;12.20;;
10005;SDS011;5042;42.626;23.382;2023-02-28T00:45:21;16.73;;;11.00;;
10005;SDS011;5042;42.626;23.382;2023-02-28T00:47:49;16.57;;;11.07;;
10005;SDS011;5042;42.626;23.382;2023-02-28T00:50:16;21.27;;;11.77;;
10005;SDS011;5042;42.626;23.382;2023-02-28T00:52:43;18.97;;;11.07;;
10005;SDS011;5042;42.626;23.382;2023-02-28T00:55:10;17.63;;;11.90;;
10005;SDS011;5042;42.626;23.382;2023-02-28T00:57:36;19.00;;;11.77;;
10005;SDS011;5042;42.626;23.382;2023-02-28T01:00:04;20.70;;;12.40;;
10005;SDS011;5042;42.626;23.382;2023-02-28T01:02:32;19.23;;;12.70;;
10005;SDS011;5042;42.626;23.382;2023-02-28T01:05:00;23.27;;;13.43;;
10005;SDS011;5042;42.626;23.382;2023-02-28T01:07:27;22.43;;;14.30;;
10005;SDS011;5042;42.626;23.382;2023-02-28T01:09:53;20.03;;;13.20;;
10005;SDS011;5042;42.626;23.382;2023-02-28T01:12:20;20.40;;;13.27;;
10005;SDS011;5042;42.626;23.382;2023-02-28T01:14:47;21.40;;;13.57;;
10005;SDS011;5042;42.626;23.382;2023-02-28T01:17:14;22.40;;;13.53;;
10005;SDS011;5042;42.626;23.382;2023-02-28T01:19:41;21.00;;;12.97;;
10005;SDS011;5042;42.626;23.382;2023-02-28T01:22:09;19.47;;;11.93;;
10005;SDS011;5042;42.626;23.382;2023-02-28T01:24:36;21.00;;;12.93;;
10005;SDS011;5042;42.626;23.382;2023-02-28T01:27:03;22.13;;;13.03;;
10005;SDS011;5042;42.626;23.382;2023-02-28T01:29:30;20.03;;;12.67;;
10005;SDS011;5042;42.626;23.382;2023-02-28T01:31:57;23.43;;;13.73;;
10005;SDS011;5042;42.626;23.382;2023-02-28T01:34:24;21.90;;;13.47;;
10005;SDS011;5042;42.626;23.382;2023-02-28T01:36:51;22.40;;;12.97;;
10005;SDS011;5042;42.626;23.382;2023-02-28T01:39:19;24.10;;;12.77;;
10005;SDS011;5042;42.626;23.382;2023-02-28T01:41:46;20.50;;;12.50;;
10005;SDS011;5042;42.626;23.382;2023-02-28T01:47:17;20.50;;;12.40;;
10005;SDS011;5042;42.626;23.382;2023-02-28T01:49:44;20.87;;;12.63;;
10005;SDS011;5042;42.626;23.382;2023-02-28T01:52:11;20.00;;;12.87;;
10005;SDS011;5042;42.626;23.382;2023-02-28T01:54:44;25.37;;;13.83;;
10005;SDS011;5042;42.626;23.382;2023-02-28T01:57:14;19.57;;;12.20;;
10005;SDS011;5042;42.626;23.382;2023-02-28T01:59:45;20.03;;;11.73;;
10005;SDS011;5042;42.626;23.382;2023-02-28T02:02:15;19.03;;;12.67;;
10005;SDS011;5042;42.626;23.382;2023-02-28T02:04:45;21.13;;;12.70;;
10005;SDS011;5042;42.626;23.382;2023-02-28T02:07:17;20.60;;;12.57;;
10005;SDS011;5042;42.626;23.382;2023-02-28T02:09:45;20.70;;;13.60;;
10005;SDS011;5042;42.626;23.382;2023-02-28T02:12:14;24.13;;;13.10;;
10005;SDS011;5042;42.626;23.382;2023-02-28T02:14:57;19.83;;;12.57;;
10005;SDS011;5042;42.626;23.382;2023-02-28T02:17:34;23.10;;;12.73;;
10005;SDS011;5042;42.626;23.382;2023-02-28T02:26:31;20.63;;;12.00;;
10005;SDS011;5042;42.626;23.382;2023-02-28T02:32:37;20.80;;;11.80;;
10005;SDS011;5042;42.626;23.382;2023-02-28T02:35:22;23.37;;;12.27;;
10005;SDS011;5042;42.626;23.382;2023-02-28T02:37:55;22.53;;;13.23;;
10005;SDS011;5042;42.626;23.382;2023-02-28T02:40:33;27.87;;;13.03;;
10005;SDS011;5042;42.626;23.382;2023-02-28T02:43:05;20.27;;;12.73;;
10005;SDS011;5042;42.626;23.382;2023-02-28T02:45:38;20.10;;;12.70;;
10005;SDS011;5042;42.626;23.382;2023-02-28T02:48:11;19.07;;;11.77;;
10005;SDS011;5042;42.626;23.382;2023-02-28T02:50:43;20.90;;;13.17;;
10005;SDS011;5042;42.626;23.382;2023-02-28T02:53:13;23.27;;;12.67;;
10005;SDS011;5042;42.626;23.382;2023-02-28T02:55:42;18.40;;;12.03;;
10005;SDS011;5042;42.626;23.382;2023-02-28T02:58:18;20.20;;;12.27;;
10005;SDS011;5042;42.626;23.382;2023-02-28T03:00:50;23.60;;;12.93;;
10005;SDS011;5042;42.626;23.382;2023-02-28T03:03:20;23.17;;;12.70;;
10005;SDS011;5042;42.626;23.382;2023-02-28T03:05:55;22.13;;;12.27;;
10005;SDS011;5042;42.626;23.382;2023-02-28T03:08:23;29.67;;;12.83;;
10005;SDS011;5042;42.626;23.382;2023-02-28T03:10:51;24.30;;;13.23;;
10005;SDS011;5042;42.626;23.382;2023-02-28T03:13:28;23.37;;;12.80;;
10005;SDS011;5042;42.626;23.382;2023-02-28T03:16:12;23.00;;;13.03;;
10005;SDS011;5042;42.626;23.382;2023-02-28T03:19:04;23.13;;;12.00;;
10005;SDS011;5042;42.626;23.382;2023-02-28T03:21:45;22.70;;;12.87;;
10005;SDS011;5042;42.626;23.382;2023-02-28T03:24:19;26.30;;;14.47;;
10005;SDS011;5042;42.626;23.382;2023-02-28T03:26:52;29.30;;;14.10;;
10005;SDS011;5042;42.626;23.382;2023-02-28T03:29:26;27.27;;;14.83;;
10005;SDS011;5042;42.626;23.382;2023-02-28T03:31:59;49.47;;;14.83;;
10005;SDS011;5042;42.626;23.382;2023-02-28T03:34:32;29.27;;;15.17;;
10005;SDS011;5042;42.626;23.382;2023-02-28T03:37:04;25.33;;;14.77;;
10005;SDS011;5042;42.626;23.382;2023-02-28T03:39:36;24.03;;;13.83;;
10005;SDS011;5042;42.626;23.382;2023-02-28T03:42:07;29.67;;;15.87;;
10005;SDS011;5042;42.626;23.382;2023-02-28T03:44:38;29.03;;;16.03;;
10005;SDS011;5042;42.626;23.382;2023-02-28T03:47:07;34.30;;;16.83;;
10005;SDS011;5042;42.626;23.382;2023-02-28T03:49:38;29.87;;;16.37;;
10005;SDS011;5042;42.626;23.382;2023-02-28T03:52:10;31.10;;;16.37;;
10005;SDS011;5042;42.626;23.382;2023-02-28T03:54:39;40.80;;;16.70;;
10005;SDS011;5042;42.626;23.382;2023-02-28T03:57:11;38.10;;;17.00;;
10005;SDS011;5042;42.626;23.382;2023-02-28T03:59:45;36.17;;;17.27;;
10005;SDS011;5042;42.626;23.382;2023-02-28T04:02:16;29.07;;;16.73;;
10005;SDS011;5042;42.626;23.382;2023-02-28T04:04:43;26.47;;;9.00;;
10005;SDS011;5042;42.626;23.382;2023-02-28T04:07:14;27.50;;;14.57;;
10005;SDS011;5042;42.626;23.382;2023-02-28T04:09:42;28.30;;;15.57;;
10005;SDS011;5042;42.626;23.382;2023-02-28T04:12:09;17.00;;;8.80;;
10005;SDS011;5042;42.626;23.382;2023-02-28T04:14:36;30.00;;;16.73;;
10005;SDS011;5042;42.626;23.382;2023-02-28T04:17:03;38.53;;;17.13;;
10005;SDS011;5042;42.626;23.382;2023-02-28T04:19:30;30.30;;;15.73;;
10005;SDS011;5042;42.626;23.382;2023-02-28T04:21:57;30.77;;;15.07;;
10005;SDS011;5042;42.626;23.382;2023-02-28T04:24:25;41.50;;;16.53;;
10005;SDS011;5042;42.626;23.382;2023-02-28T04:26:54;58.83;;;17.57;;
10005;SDS011;5042;42.626;23.382;2023-02-28T04:29:22;40.57;;;16.27;;
10005;SDS011;5042;42.626;23.382;2023-02-28T04:31:50;47.13;;;15.43;;
10005;SDS011;5042;42.626;23.382;2023-02-28T04:34:18;42.80;;;15.53;;
10005;SDS011;5042;42.626;23.382;2023-02-28T04:36:46;25.77;;;14.17;;
10005;SDS011;5042;42.626;23.382;2023-02-28T04:39:14;26.20;;;13.20;;
10005;SDS011;5042;42.626;23.382;2023-02-28T04:41:43;24.30;;;13.40;;
10005;SDS011;5042;42.626;23.382;2023-02-28T04:44:10;21.40;;;10.30;;
10005;SDS011;5042;42.626;23.382;2023-02-28T04:46:37;16.63;;;9.03;;
10005;SDS011;5042;42.626;23.382;2023-02-28T04:49:04;25.23;;;11.47;;
10005;SDS011;5042;42.626;23.382;2023-02-28T04:51:30;31.30;;;12.10;;
10005;SDS011;5042;42.626;23.382;2023-02-28T04:53:57;31.40;;;11.10;;
10005;SDS011;5042;42.626;23.382;2023-02-28T04:56:24;26.23;;;10.73;;
10005;SDS011;5042;42.626;23.382;2023-02-28T04:58:52;19.63;;;9.37;;
10005;SDS011;5042;42.626;23.382;2023-02-28T05:01:21;36.43;;;10.23;;
10005;SDS011;5042;42.626;23.382;2023-02-28T05:03:49;39.37;;;13.53;;
10005;SDS011;5042;42.626;23.382;2023-02-28T05:06:17;31.20;;;12.13;;
10005;SDS011;5042;42.626;23.382;2023-02-28T05:08:45;25.40;;;11.47;;
10005;SDS011;5042;42.626;23.382;2023-02-28T05:11:14;20.13;;;10.33;;
10005;SDS011;5042;42.626;23.382;2023-02-28T05:13:43;20.57;;;10.60;;
10005;SDS011;5042;42.626;23.382;2023-02-28T05:16:12;25.70;;;12.73;;
10005;SDS011;5042;42.626;23.382;2023-02-28T05:18:39;48.30;;;14.43;;
10005;SDS011;5042;42.626;23.382;2023-02-28T05:21:12;25.77;;;12.07;;
10005;SDS011;5042;42.626;23.382;2023-02-28T05:23:49;41.03;;;13.83;;
10005;SDS011;5042;42.626;23.382;2023-02-28T05:26:16;32.80;;;12.97;;
10005;SDS011;5042;42.626;23.382;2023-02-28T05:28:43;39.90;;;14.03;;
10005;SDS011;5042;42.626;23.382;2023-02-28T05:31:11;31.20;;;13.93;;
10005;SDS011;5042;42.626;23.382;2023-02-28T05:33:38;37.47;;;13.60;;
10005;SDS011;5042;42.626;23.382;2023-02-28T05:36:06;30.63;;;14.93;;
10005;SDS011;5042;42.626;23.382;2023-02-28T05:38:33;25.57;;;13.07;;
10005;SDS011;5042;42.626;23.382;2023-02-28T05:41:00;28.23;;;13.37;;
10005;SDS011;5042;42.626;23.382;2023-02-28T05:43:30;27.67;;;13.67;;
10005;SDS011;5042;42.626;23.382;2023-02-28T05:45:57;26.30;;;13.97;;
10005;SDS011;5042;42.626;23.382;2023-02-28T05:48:25;24.67;;;12.53;;
10005;SDS011;5042;42.626;23.382;2023-02-28T05:50:52;30.47;;;14.60;;
10005;SDS011;5042;42.626;23.382;2023-02-28T05:53:18;26.03;;;13.20;;
10005;SDS011;5042;42.626;23.382;2023-02-28T05:55:45;30.20;;;15.37;;
10005;SDS011;5042;42.626;23.382;2023-02-28T05:58:12;28.47;;;14.90;;
10005;SDS011;5042;42.626;23.382;2023-02-28T06:00:39;27.67;;;14.13;;
10005;SDS011;5042;42.626;23.382;2023-02-28T06:03:05;24.63;;;13.80;;
10005;SDS011;5042;42.626;23.382;2023-02-28T06:05:33;26.40;;;13.57;;
10005;SDS011;5042;42.626;23.382;2023-02-28T06:08:00;30.40;;;14.10;;
10005;SDS011;5042;42.626;23.382;2023-02-28T06:10:27;27.20;;;13.17;;
10005;SDS011;5042;42.626;23.382;2023-02-28T06:12:54;24.77;;;13.40;;
10005;SDS011;5042;42.626;23.382;2023-02-28T06:15:20;27.07;;;14.10;;
10005;SDS011;5042;42.626;23.382;2023-02-28T06:17:47;24.77;;;12.57;;
10005;SDS011;5042;42.626;23.382;2023-02-28T06:20:14;22.57;;;11.83;;
10005;SDS011;5042;42.626;23.382;2023-02-28T06:22:42;18.80;;;11.47;;
10005;SDS011;5042;42.626;23.382;2023-02-28T06:25:09;18.60;;;11.13;;
10005;SDS011;5042;42.626;23.382;2023-02-28T06:27:36;18.80;;;9.80;;
10005;SDS011;5042;42.626;23.382;2023-02-28T06:30:03;19.23;;;10.13;;
10005;SDS011;5042;42.626;23.382;2023-02-28T06:32:31;19.67;;;10.80;;
10005;SDS011;5042;42.626;23.382;2023-02-28T06:34:57;22.20;;;12.47;;
10005;SDS011;5042;42.626;23.382;2023-02-28T06:37:24;21.77;;;11.70;;
10005;SDS011;5042;42.626;23.382;2023-02-28T06:39:53;27.83;;;13.57;;
10005;SDS011;5042;42.626;23.382;2023-02-28T06:42:21;32.73;;;15.93;;
10005;SDS011;5042;42.626;23.382;2023-02-28T06:44:49;28.87;;;14.53;;
10005;SDS011;5042;42.626;23.382;2023-02-28T06:47:16;20.10;;;12.27;;
10005;SDS011;5042;42.626;23.382;2023-02-28T06:49:43;19.57;;;11.77;;
10005;SDS011;5042;42.626;23.382;2023-02-28T06:52:10;25.73;;;13.20;;
10005;SDS011;5042;42.626;23.382;2023-02-28T06:54:37;25.23;;;13.67;;
10005;SDS011;5042;42.626;23.382;2023-02-28T06:57:05;23.43;;;13.07;;
10005;SDS011;5042;42.626;23.382;2023-02-28T06:59:32;23.60;;;12.90;;
10005;SDS011;5042;42.626;23.382;2023-02-28T07:02:00;22.80;;;13.70;;
10005;SDS011;5042;42.626;23.382;2023-02-28T07:04:27;24.37;;;13.23;;
10005;SDS011;5042;42.626;23.382;2023-02-28T07:06:54;23.47;;;12.80;;
10005;SDS011;5042;42.626;23.382;2023-02-28T07:09:22;22.53;;;13.03;;
10005;SDS011;5042;42.626;23.382;2023-02-28T07:11:48;20.90;;;12.80;;
10005;SDS011;5042;42.626;23.382;2023-02-28T07:14:16;25.60;;;12.10;;
10005;SDS011;5042;42.626;23.382;2023-02-28T07:16:43;22.37;;;12.60;;
10005;SDS011;5042;42.626;23.382;2023-02-28T07:19:10;20.40;;;12.40;;
10005;SDS011;5042;42.626;23.382;2023-02-28T07:21:37;24.73;;;13.17;;
10005;SDS011;5042;42.626;23.382;2023-02-28T07:24:04;25.30;;;12.47;;
10005;SDS011;5042;42.626;23.382;2023-02-28T07:26:31;21.90;;;11.03;;
10005;SDS011;5042;42.626;23.382;2023-02-28T07:28:59;23.77;;;11.70;;
10005;SDS011;5042;42.626;23.382;2023-02-28T07:31:27;25.40;;;13.23;;
10005;SDS011;5042;42.626;23.382;2023-02-28T07:33:54;24.73;;;13.30;;
10005;SDS011;5042;42.626;23.382;2023-02-28T07:36:21;25.50;;;13.10;;
10005;SDS011;5042;42.626;23.382;2023-02-28T07:38:48;27.83;;;14.07;;
10005;SDS011;5042;42.626;23.382;2023-02-28T07:41:15;25.20;;;13.00;;
10005;SDS011;5042;42.626;23.382;2023-02-28T07:43:43;18.20;;;10.47;;
10005;SDS011;5042;42.626;23.382;2023-02-28T07:46:11;25.17;;;13.83;;
10005;SDS011;5042;42.626;23.382;2023-02-28T07:48:42;30.60;;;16.10;;
10005;SDS011;5042;42.626;23.382;2023-02-28T07:51:09;23.67;;;13.00;;
10005;SDS011;5042;42.626;23.382;2023-02-28T07:53:36;17.10;;;9.80;;
10005;SDS011;5042;42.626;23.382;2023-02-28T07:56:03;24.07;;;12.93;;
10005;SDS011;5042;42.626;23.382;2023-02-28T07:58:30;22.83;;;11.83;;
10005;SDS011;5042;42.626;23.382;2023-02-28T08:00:57;21.07;;;12.53;;
10005;SDS011;5042;42.626;23.382;2023-02-28T08:03:31;18.97;;;11.50;;
10005;SDS011;5042;42.626;23.382;2023-02-28T08:05:59;20.03;;;12.53;;
10005;SDS011;5042;42.626;23.382;2023-02-28T08:08:27;26.80;;;10.27;;
10005;SDS011;5042;42.626;23.382;2023-02-28T08:10:57;22.77;;;10.60;;
10005;SDS011;5042;42.626;23.382;2023-02-28T08:13:24;12.50;;;7.40;;
10005;SDS011;5042;42.626;23.382;2023-02-28T08:15:52;15.27;;;8.83;;
10005;SDS011;5042;42.626;23.382;2023-02-28T08:18:19;21.90;;;13.90;;
10005;SDS011;5042;42.626;23.382;2023-02-28T08:20:45;15.83;;;9.23;;
10005;SDS011;5042;42.626;23.382;2023-02-28T08:23:13;22.93;;;10.93;;
10005;SDS011;5042;42.626;23.382;2023-02-28T08:25:40;18.93;;;9.90;;
10005;SDS011;5042;42.626;23.382;2023-02-28T08:28:07;21.80;;;10.53;;
10005;SDS011;5042;42.626;23.382;2023-02-28T08:30:34;14.97;;;8.90;;
10005;SDS011;5042;42.626;23.382;2023-02-28T08:33:00;17.50;;;9.77;;
10005;SDS011;5042;42.626;23.382;2023-02-28T08:35:27;16.70;;;10.07;;
10005;SDS011;5042;42.626;23.382;2023-02-28T08:37:54;19.20;;;11.03;;
10005;SDS011;5042;42.626;23.382;2023-02-28T08:40:22;19.47;;;10.97;;
10005;SDS011;5042;42.626;23.382;2023-02-28T08:42:49;14.80;;;7.37;;
10005;SDS011;5042;42.626;23.382;2023-02-28T08:45:16;17.87;;;8.37;;
10005;SDS011;5042;42.626;23.382;2023-02-28T08:47:43;17.93;;;8.73;;
10005;SDS011;5042;42.626;23.382;2023-02-28T08:50:10;13.00;;;7.40;;
10005;SDS011;5042;42.626;23.382;2023-02-28T08:52:41;11.80;;;7.13;;
10005;SDS011;5042;42.626;23.382;2023-02-28T08:55:08;11.50;;;7.37;;
10005;SDS011;5042;42.626;23.382;2023-02-28T08:57:37;13.03;;;6.13;;
10005;SDS011;5042;42.626;23.382;2023-02-28T09:00:04;10.93;;;4.97;;
10005;SDS011;5042;42.626;23.382;2023-02-28T09:02:32;10.97;;;4.97;;
10005;SDS011;5042;42.626;23.382;2023-02-28T09:04:59;8.23;;;5.00;;
10005;SDS011;5042;42.626;23.382;2023-02-28T09:07:26;9.57;;;5.40;;
10005;SDS011;5042;42.626;23.382;2023-02-28T09:09:53;9.50;;;5.03;;
10005;SDS011;5042;42.626;23.382;2023-02-28T09:12:19;8.67;;;5.23;;
10005;SDS011;5042;42.626;23.382;2023-02-28T09:14:48;9.20;;;5.00;;
10005;SDS011;5042;42.626;23.382;2023-02-28T09:17:15;8.20;;;4.40;;
10005;SDS011;5042;42.626;23.382;2023-02-28T09:19:41;10.27;;;5.10;;
10005;SDS011;5042;42.626;23.382;2023-02-28T09:22:09;9.80;;;4.97;;
10005;SDS011;5042;42.626;23.382;2023-02-28T09:24:36;8.17;;;4.97;;
10005;SDS011;5042;42.626;23.382;2023-02-28T09:27:03;8.33;;;4.80;;
10005;SDS011;5042;42.626;23.382;2023-02-28T09:29:31;8.17;;;4.63;;
10005;SDS011;5042;42.626;23.382;2023-02-28T09:32:00;10.60;;;4.70;;
10005;SDS011;5042;42.626;23.382;2023-02-28T09:34:27;8.67;;;5.07;;
10005;SDS011;5042;42.626;23.382;2023-02-28T09:36:55;9.23;;;5.07;;
10005;SDS011;5042;42.626;23.382;2023-02-28T09:39:22;9.83;;;4.60;;
10005;SDS011;5042;42.626;23.382;2023-02-28T09:41:51;10.20;;;5.13;;
10005;SDS011;5042;42.626;23.382;2023-02-28T09:44:20;8.27;;;4.47;;
10005;SDS011;5042;42.626;23.382;2023-02-28T09:46:55;9.30;;;5.23;;
10005;SDS011;5042;42.626;23.382;2023-02-28T09:49:28;8.53;;;4.57;;
10005;SDS011;5042;42.626;23.382;2023-02-28T09:52:02;9.00;;;4.80;;
10005;SDS011;5042;42.626;23.382;2023-02-28T09:54:34;9.60;;;5.00;;
10005;SDS011;5042;42.626;23.382;2023-02-28T09:57:04;7.20;;;4.23;;
10005;SDS011;5042;42.626;23.382;2023-02-28T10:02:39;9.67;;;4.43;;
10005;SDS011;5042;42.626;23.382;2023-02-28T10:05:14;9.00;;;4.97;;
10005;SDS011;5042;42.626;23.382;2023-02-28T10:07:50;7.13;;;3.27;;
10005;SDS011;5042;42.626;23.382;2023-02-28T10:10:27;7.10;;;3.93;;
10005;SDS011;5042;42.626;23.382;2023-02-28T10:13:00;9.03;;;5.10;;
10005;SDS011;5042;42.626;23.382;2023-02-28T10:15:32;3.40;;;2.10;;
10005;SDS011;5042;42.626;23.382;2023-02-28T10:18:02;12.40;;;6.53;;
10005;SDS011;5042;42.626;23.382;2023-02-28T10:20:33;12.57;;;7.23;;
10005;SDS011;5042;42.626;23.382;2023-02-28T10:23:03;10.87;;;6.73;;
10005;SDS011;5042;42.626;23.382;2023-02-28T10:25:37;9.07;;;4.63;;
10005;SDS011;5042;42.626;23.382;2023-02-28T10:28:08;9.07;;;5.03;;
10005;SDS011;5042;42.626;23.382;2023-02-28T10:30:37;6.07;;;4.20;;
10005;SDS011;5042;42.626;23.382;2023-02-28T10:33:08;11.50;;;4.77;;
10005;SDS011;5042;42.626;23.382;2023-02-28T10:35:45;7.33;;;4.90;;
10005;SDS011;5042;42.626;23.382;2023-02-28T10:38:15;7.43;;;5.07;;
10005;SDS011;5042;42.626;23.382;2023-02-28T10:40:43;13.40;;;5.10;;
10005;SDS011;5042;42.626;23.382;2023-02-28T10:43:20;9.20;;;4.73;;
10005;SDS011;5042;42.626;23.382;2023-02-28T10:45:53;9.53;;;4.40;;
10005;SDS011;5042;42.626;23.382;2023-02-28T10:48:34;6.70;;;4.50;;
10005;SDS011;5042;42.626;23.382;2023-02-28T10:51:05;9.63;;;4.90;;
10005;SDS011;5042;42.626;23.382;2023-02-28T10:53:37;4.80;;;3.83;;
10005;SDS011;5042;42.626;23.382;2023-02-28T10:56:16;9.70;;;4.90;;
10005;SDS011;5042;42.626;23.382;2023-02-28T10:58:49;6.73;;;4.37;;
10005;SDS011;5042;42.626;23.382;2023-02-28T11:01:21;9.73;;;5.23;;
10005;SDS011;5042;42.626;23.382;2023-02-28T11:03:49;9.77;;;4.87;;
10005;SDS011;5042;42.626;23.382;2023-02-28T11:06:19;8.67;;;4.80;;
10005;SDS011;5042;42.626;23.382;2023-02-28T11:08:49;7.80;;;5.00;;
10005;SDS011;5042;42.626;23.382;2023-02-28T11:11:18;8.63;;;4.90;;
10005;SDS011;5042;42.626;23.382;2023-02-28T11:13:47;11.37;;;5.77;;
10005;SDS011;5042;42.626;23.382;2023-02-28T11:16:17;7.17;;;4.80;;
10005;SDS011;5042;42.626;23.382;2023-02-28T11:18:47;13.30;;;5.63;;
10005;SDS011;5042;42.626;23.382;2023-02-28T11:21:16;8.33;;;3.57;;
10005;SDS011;5042;42.626;23.382;2023-02-28T11:23:49;12.17;;;6.17;;
10005;SDS011;5042;42.626;23.382;2023-02-28T11:29:08;7.87;;;5.17;;
10005;SDS011;5042;42.626;23.382;2023-02-28T11:31:38;10.87;;;5.23;;
10005;SDS011;5042;42.626;23.382;2023-02-28T11:36:52;7.67;;;4.30;;
10005;SDS011;5042;42.626;23.382;2023-02-28T11:39:21;7.67;;;4.90;;
10005;SDS011;5042;42.626;23.382;2023-02-28T11:41:56;11.13;;;5.53;;
10005;SDS011;5042;42.626;23.382;2023-02-28T11:44:37;7.73;;;5.17;;
10005;SDS011;5042;42.626;23.382;2023-02-28T11:47:17;8.23;;;5.40;;
10005;SDS011;5042;42.626;23.382;2023-02-28T11:49:49;9.77;;;5.57;;
10005;SDS011;5042;42.626;23.382;2023-02-28T11:52:32;9.43;;;4.87;;
10005;SDS011;5042;42.626;23.382;2023-02-28T11:55:09;10.03;;;5.50;;
10005;SDS011;5042;42.626;23.382;2023-02-28T11:57:49;10.17;;;5.47;;
10005;SDS011;5042;42.626;23.382;2023-02-28T12:00:38;9.97;;;5.83;;
10005;SDS011;5042;42.626;23.382;2023-02-28T12:03:14;10.17;;;5.63;;
10005;SDS011;5042;42.626;23.382;2023-02-28T12:05:50;10.90;;;6.20;;
10005;SDS011;5042;42.626;23.382;2023-02-28T12:08:30;12.00;;;5.90;;
10005;SDS011;5042;42.626;23.382;2023-02-28T12:11:11;9.20;;;5.63;;
10005;SDS011;5042;42.626;23.382;2023-02-28T12:13:47;13.43;;;6.43;;
10005;SDS011;5042;42.626;23.382;2023-02-28T12:16:25;9.70;;;6.03;;
10005;SDS011;5042;42.626;23.382;2023-02-28T12:19:04;9.67;;;6.10;;
10005;SDS011;5042;42.626;23.382;2023-02-28T12:24:47;12.20;;;6.83;;
10005;SDS011;5042;42.626;23.382;2023-02-28T12:27:21;9.13;;;5.73;;
10005;SDS011;5042;42.626;23.382;2023-02-28T12:29:52;7.90;;;5.30;;
10005;SDS011;5042;42.626;23.382;2023-02-28T12:32:25;10.63;;;5.97;;
10005;SDS011;5042;42.626;23.382;2023-02-28T12:34:57;13.90;;;7.03;;
10005;SDS011;5042;42.626;23.382;2023-02-28T12:37:28;11.20;;;6.00;;
10005;SDS011;5042;42.626;23.382;2023-02-28T12:40:01;9.27;;;5.30;;
10005;SDS011;5042;42.626;23.382;2023-02-28T12:42:31;11.40;;;6.10;;
10005;SDS011;5042;42.626;23.382;2023-02-28T12:45:04;12.10;;;6.70;;
10005;SDS011;5042;42.626;23.382;2023-02-28T12:47:37;13.57;;;6.07;;
10005;SDS011;5042;42.626;23.382;2023-02-28T12:50:07;12.40;;;5.73;;
10005;SDS011;5042;42.626;23.382;2023-02-28T12:52:39;11.93;;;6.17;;
10005;SDS011;5042;42.626;23.382;2023-02-28T12:55:15;9.53;;;5.93;;
10005;SDS011;5042;42.626;23.382;2023-02-28T12:57:50;9.37;;;5.73;;
10005;SDS011;5042;42.626;23.382;2023-02-28T13:00:25;11.77;;;6.37;;
10005;SDS011;5042;42.626;23.382;2023-02-28T13:03:06;12.03;;;6.60;;
10005;SDS011;5042;42.626;23.382;2023-02-28T13:06:01;11.93;;;5.43;;
10005;SDS011;5042;42.626;23.382;2023-02-28T13:08:46;10.90;;;5.80;;
10005;SDS011;5042;42.626;23.382;2023-02-28T13:11:27;5.80;;;3.93;;
10005;SDS011;5042;42.626;23.382;2023-02-28T13:14:00;8.60;;;5.37;;
10005;SDS011;5042;42.626;23.382;2023-02-28T13:19:27;8.83;;;4.83;;
10005;SDS011;5042;42.626;23.382;2023-02-28T13:21:56;8.37;;;4.90;;
10005;SDS011;5042;42.626;23.382;2023-02-28T13:27:24;11.27;;;4.77;;
10005;SDS011;5042;42.626;23.382;2023-02-28T13:29:59;9.60;;;5.43;;
10005;SDS011;5042;42.626;23.382;2023-02-28T13:35:14;11.03;;;5.43;;
10005;SDS011;5042;42.626;23.382;2023-02-28T13:38:15;9.13;;;5.23;;
10005;SDS011;5042;42.626;23.382;2023-02-28T13:44:09;8.47;;;5.50;;
10005;SDS011;5042;42.626;23.382;2023-02-28T13:49:37;11.57;;;5.20;;
10005;SDS011;5042;42.626;23.382;2023-02-28T13:52:07;11.80;;;6.03;;
10005;SDS011;5042;42.626;23.382;2023-02-28T13:54:44;9.33;;;5.17;;
10005;SDS011;5042;42.626;23.382;2023-02-28T13:57:23;13.97;;;6.00;;
10005;SDS011;5042;42.626;23.382;2023-02-28T14:00:02;10.27;;;5.70;;
10005;SDS011;5042;42.626;23.382;2023-02-28T14:05:41;9.80;;;6.40;;
10005;SDS011;5042;42.626;23.382;2023-02-28T14:08:12;14.90;;;6.87;;
10005;SDS011;5042;42.626;23.382;2023-02-28T14:10:42;11.50;;;5.47;;
10005;SDS011;5042;42.626;23.382;2023-02-28T14:13:12;9.63;;;6.00;;
10005;SDS011;5042;42.626;23.382;2023-02-28T14:16:04;10.87;;;5.97;;
10005;SDS011;5042;42.626;23.382;2023-02-28T14:18:33;11.43;;;6.03;;
10005;SDS011;5042;42.626;23.382;2023-02-28T14:21:08;17.17;;;6.93;;
10005;SDS011;5042;42.626;23.382;2023-02-28T14:23:49;15.50;;;6.60;;
10005;SDS011;5042;42.626;23.382;2023-02-28T14:26:46;13.30;;;6.50;;
10005;SDS011;5042;42.626;23.382;2023-02-28T14:29:43;9.27;;;5.77;;
10005;SDS011;5042;42.626;23.382;2023-02-28T14:32:32;10.97;;;6.13;;
10005;SDS011;5042;42.626;23.382;2023-02-28T14:35:03;11.33;;;6.23;;
10005;SDS011;5042;42.626;23.382;2023-02-28T14:37:39;12.00;;;6.20;;
10005;SDS011;5042;42.626;23.382;2023-02-28T14:40:12;11.87;;;5.80;;
10005;SDS011;5042;42.626;23.382;2023-02-28T14:42:45;10.37;;;5.70;;
10005;SDS011;5042;42.626;23.382;2023-02-28T14:45:17;11.30;;;5.90;;
10005;SDS011;5042;42.626;23.382;2023-02-28T14:47:47;11.47;;;5.90;;
10005;SDS011;5042;42.626;23.382;2023-02-28T14:50:18;12.00;;;5.73;;
10005;SDS011;5042;42.626;23.382;2023-02-28T14:52:47;13.47;;;6.90;;
10005;SDS011;5042;42.626;23.382;2023-02-28T14:55:18;11.97;;;6.43;;
10005;SDS011;5042;42.626;23.382;2023-02-28T14:57:52;11.23;;;6.37;;
10005;SDS011;5042;42.626;23.382;2023-02-28T15:00:21;13.57;;;6.53;;
10005;SDS011;5042;42.626;23.382;2023-02-28T15:02:51;16.17;;;6.13;;
10005;SDS011;5042;42.626;23.382;2023-02-28T15:05:22;13.30;;;6.17;;
10005;SDS011;5042;42.626;23.382;2023-02-28T15:08:00;10.93;;;5.63;;
10005;SDS011;5042;42.626;23.382;2023-02-28T15:10:29;10.53;;;5.97;;
10005;SDS011;5042;42.626;23.382;2023-02-28T15:12:57;7.50;;;4.67;;
10005;SDS011;5042;42.626;23.382;2023-02-28T15:15:29;12.10;;;6.53;;
10005;SDS011;5042;42.626;23.382;2023-02-28T15:18:07;9.73;;;4.53;;
10005;SDS011;5042;42.626;23.382;2023-02-28T15:20:42;9.27;;;5.43;;
10005;SDS011;5042;42.626;23.382;2023-02-28T15:23:10;9.37;;;5.43;;
10005;SDS011;5042;42.626;23.382;2023-02-28T15:25:37;11.57;;;5.73;;
10005;SDS011;5042;42.626;23.382;2023-02-28T15:28:09;5.17;;;3.60;;
10005;SDS011;5042;42.626;23.382;2023-02-28T15:30:50;6.47;;;4.57;;
10005;SDS011;5042;42.626;23.382;2023-02-28T15:33:20;9.40;;;5.90;;